Time;durP1;ratioP1;P1;durP2;ratioP2;P2;SDS_P1;SDS_P2;PMS_P1;PMS_P2;Temp;Humidity;BMP_temperature;BMP_pressure;BME280_temperature;BME280_humidity;BME280_pressure;Samples;Min_cycle;Max_cycle;Signal;HPM_P1;HPM_P2
2022/03/15 00:02:22;;;;;;;16.37;11.20;;;4.50;70.70;;;;;;5018744;28;20191;-86
2022/03/15 00:04:48;;;;;;;15.53;11.63;;;4.50;70.90;;;;;;5020410;28;20614;-89
2022/03/15 00:07:16;;;;;;;14.57;11.30;;;4.50;70.70;;;;;;5019939;28;20179;-85
2022/03/15 00:09:43;;;;;;;12.77;11.07;;;4.50;70.60;;;;;;5003950;28;20583;-89
2022/03/15 00:12:10;;;;;;;14.63;11.50;;;4.40;70.80;;;;;;5026126;28;20176;-89
2022/03/15 00:14:37;;;;;;;15.03;11.30;;;4.30;71.00;;;;;;5004299;28;20187;-91
2022/03/15 00:17:05;;;;;;;16.93;11.27;;;4.30;71.20;;;;;;5019404;28;20251;-87
2022/03/15 00:19:31;;;;;;;15.70;12.00;;;4.30;71.10;;;;;;5010285;28;20215;-89
2022/03/15 00:21:57;;;;;;;16.23;11.17;;;4.30;71.20;;;;;;5017961;28;20172;-91
2022/03/15 00:24:24;;;;;;;16.40;11.27;;;4.40;70.90;;;;;;5021142;28;20172;-88
2022/03/15 00:26:50;;;;;;;16.23;11.93;;;4.40;70.90;;;;;;5017977;28;20179;-89
2022/03/15 00:29:18;;;;;;;14.93;11.80;;;4.30;71.00;;;;;;4998909;28;20386;-91
2022/03/15 00:31:47;;;;;;;17.60;11.77;;;4.30;71.10;;;;;;4998703;28;20208;-87
2022/03/15 00:34:13;;;;;;;14.93;11.67;;;4.30;71.20;;;;;;5015843;28;20257;-88
2022/03/15 00:36:38;;;;;;;13.77;11.13;;;4.30;71.40;;;;;;5000747;28;20273;-89
2022/03/15 00:39:05;;;;;;;15.17;10.47;;;4.30;71.10;;;;;;4980514;28;20240;-89
2022/03/15 00:41:31;;;;;;;20.17;10.97;;;4.30;71.00;;;;;;4996659;28;20204;-89
2022/03/15 00:43:57;;;;;;;12.83;11.53;;;4.40;71.30;;;;;;4999616;28;20669;-87
2022/03/15 00:46:23;;;;;;;12.27;10.90;;;4.30;70.90;;;;;;4999945;28;20542;-87
2022/03/15 00:48:49;;;;;;;19.57;12.23;;;4.40;71.10;;;;;;4997242;28;20176;-86
2022/03/15 00:51:15;;;;;;;13.47;10.50;;;4.40;71.20;;;;;;4996242;28;20184;-84
2022/03/15 00:53:41;;;;;;;13.03;11.03;;;4.30;71.10;;;;;;4995672;28;20181;-84
2022/03/15 00:56:07;;;;;;;16.97;11.80;;;4.40;71.20;;;;;;4995377;28;20178;-84
2022/03/15 00:58:33;;;;;;;14.87;11.27;;;4.40;70.90;;;;;;4997319;28;20498;-88
2022/03/15 01:00:59;;;;;;;13.97;11.40;;;4.50;71.00;;;;;;4997979;28;20172;-89
2022/03/15 01:03:26;;;;;;;13.03;11.10;;;4.40;71.10;;;;;;5005039;28;20180;-83
2022/03/15 01:05:52;;;;;;;13.00;10.53;;;4.60;71.20;;;;;;5015172;28;20182;-86
2022/03/15 01:08:18;;;;;;;15.80;11.50;;;4.50;70.90;;;;;;5018668;28;20215;-82
2022/03/15 01:10:44;;;;;;;13.47;10.47;;;4.50;71.20;;;;;;5011227;28;20216;-87
2022/03/15 01:13:11;;;;;;;12.40;11.10;;;4.40;71.40;;;;;;5012426;28;20237;-82
2022/03/15 01:15:44;;;;;;;14.03;11.07;;;4.40;71.30;;;;;;5019954;28;20241;-86
2022/03/15 01:18:14;;;;;;;14.03;10.60;;;4.40;71.40;;;;;;5011003;28;20154;-90
2022/03/15 01:20:42;;;;;;;13.27;11.50;;;4.40;71.50;;;;;;5018493;28;20158;-86
2022/03/15 01:23:08;;;;;;;13.20;11.00;;;4.40;71.60;;;;;;5018320;28;20185;-90
2022/03/15 01:25:34;;;;;;;13.67;10.93;;;4.40;71.70;;;;;;4997612;28;20177;-91
2022/03/15 01:28:00;;;;;;;12.73;10.13;;;4.30;72.10;;;;;;4999724;28;20213;-86
2022/03/15 01:30:26;;;;;;;13.23;11.33;;;4.30;71.90;;;;;;4978018;28;20215;-86
2022/03/15 01:32:51;;;;;;;12.57;11.13;;;4.20;72.00;;;;;;4996035;28;20608;-87
2022/03/15 01:35:17;;;;;;;17.10;12.70;;;4.30;72.50;;;;;;4995605;28;20229;-90
2022/03/15 01:37:43;;;;;;;17.00;13.23;;;4.20;72.50;;;;;;4995796;28;20216;-86
2022/03/15 01:40:10;;;;;;;16.50;13.80;;;4.20;72.50;;;;;;4995601;28;20264;-89
2022/03/15 01:42:36;;;;;;;17.03;13.77;;;4.10;72.80;;;;;;4995738;28;20229;-86
2022/03/15 01:45:04;;;;;;;15.13;13.03;;;4.10;72.80;;;;;;4995548;28;20187;-90
2022/03/15 01:47:30;;;;;;;19.40;14.27;;;4.00;72.90;;;;;;4995573;28;20169;-87
2022/03/15 01:49:56;;;;;;;16.10;13.20;;;4.00;73.40;;;;;;4996608;28;20565;-91
2022/03/15 01:52:22;;;;;;;19.03;14.00;;;3.90;73.70;;;;;;5000150;28;20174;-88
2022/03/15 01:54:50;;;;;;;15.00;12.67;;;4.00;73.70;;;;;;5001667;28;20184;-86
2022/03/15 01:57:16;;;;;;;19.17;13.40;;;3.90;73.70;;;;;;5000507;28;20631;-88
2022/03/15 01:59:42;;;;;;;19.27;13.40;;;3.80;73.80;;;;;;5003223;28;20176;-90
2022/03/15 02:02:08;;;;;;;18.30;14.10;;;3.90;74.10;;;;;;5000754;28;20193;-92
2022/03/15 02:04:36;;;;;;;16.80;13.60;;;3.80;74.10;;;;;;5005313;28;20236;-89
2022/03/15 02:07:10;;;;;;;19.90;14.50;;;3.90;74.10;;;;;;5003185;28;20225;-90
2022/03/15 02:09:36;;;;;;;18.57;13.43;;;3.80;74.10;;;;;;4977601;28;20209;-90
2022/03/15 02:12:03;;;;;;;18.33;13.70;;;3.90;73.90;;;;;;4995253;28;20185;-84
2022/03/15 02:14:29;;;;;;;17.00;13.27;;;3.90;74.10;;;;;;4994412;28;20191;-82
2022/03/15 02:16:56;;;;;;;15.00;11.67;;;3.90;74.30;;;;;;4976652;28;20553;-83
2022/03/15 02:19:23;;;;;;;16.80;12.07;;;3.80;74.00;;;;;;4994480;28;20260;-87
2022/03/15 02:21:50;;;;;;;14.30;12.17;;;3.80;74.30;;;;;;4995362;28;20199;-90
2022/03/15 02:24:16;;;;;;;16.50;13.07;;;3.80;74.50;;;;;;4996507;28;20252;-89
2022/03/15 02:26:42;;;;;;;14.20;12.17;;;3.90;74.20;;;;;;5007560;28;20272;-83
2022/03/15 02:29:08;;;;;;;15.37;12.30;;;3.90;74.20;;;;;;4997329;28;20260;-88
2022/03/15 02:31:34;;;;;;;24.60;13.83;;;3.90;74.40;;;;;;4995917;28;20181;-89
2022/03/15 02:34:00;;;;;;;17.67;13.13;;;3.80;74.40;;;;;;4994412;28;20185;-86
2022/03/15 02:36:26;;;;;;;17.23;13.20;;;3.90;74.40;;;;;;4990638;28;20248;-87
2022/03/15 02:38:52;;;;;;;15.50;13.40;;;3.90;74.30;;;;;;5016819;28;20631;-87
2022/03/15 02:41:17;;;;;;;17.53;13.90;;;3.90;75.10;;;;;;5015664;28;20650;-87
2022/03/15 02:43:44;;;;;;;17.60;13.57;;;3.80;74.70;;;;;;5020184;28;20177;-85
2022/03/15 02:46:11;;;;;;;17.83;14.00;;;3.70;74.50;;;;;;5016682;28;20173;-82
2022/03/15 02:48:36;;;;;;;16.90;13.70;;;3.80;74.60;;;;;;5005993;28;20174;-84
2022/03/15 02:51:08;;;;;;;17.53;14.40;;;3.70;74.70;;;;;;5037101;28;20204;-90
2022/03/15 02:53:38;;;;;;;16.77;14.17;;;3.60;74.90;;;;;;5026601;28;20154;-86
2022/03/15 02:56:11;;;;;;;17.00;14.13;;;3.60;74.80;;;;;;5015344;28;20195;-84
2022/03/15 02:58:41;;;;;;;21.07;14.13;;;3.60;75.00;;;;;;5014999;28;20160;-89
2022/03/15 03:01:08;;;;;;;19.60;14.97;;;3.50;75.20;;;;;;5015301;28;20181;-88
2022/03/15 03:03:34;;;;;;;16.23;13.27;;;3.50;75.10;;;;;;5017155;28;20257;-83
2022/03/15 03:06:00;;;;;;;19.37;13.30;;;3.60;75.10;;;;;;5024296;28;20181;-84
2022/03/15 03:08:27;;;;;;;19.90;14.30;;;3.60;74.90;;;;;;5002552;28;20548;-89
2022/03/15 03:10:57;;;;;;;20.50;13.90;;;3.70;74.90;;;;;;5030665;28;20205;-84
2022/03/15 03:13:26;;;;;;;17.10;13.40;;;3.70;74.80;;;;;;5023284;28;20536;-89
2022/03/15 03:15:57;;;;;;;16.47;12.00;;;3.50;75.10;;;;;;5018905;28;20183;-85
2022/03/15 03:18:33;;;;;;;17.17;13.97;;;3.50;75.50;;;;;;5011217;28;20168;-82
2022/03/15 03:21:01;;;;;;;18.63;13.87;;;3.60;75.40;;;;;;5011145;28;20282;-82
2022/03/15 03:23:28;;;;;;;16.53;13.47;;;3.60;75.20;;;;;;5021852;28;20165;-84
2022/03/15 03:25:56;;;;;;;15.93;12.57;;;3.70;75.30;;;;;;5004907;28;20182;-82
2022/03/15 03:28:23;;;;;;;17.03;13.67;;;3.60;75.30;;;;;;5028496;28;20196;-82
2022/03/15 03:30:49;;;;;;;16.37;13.17;;;3.60;75.20;;;;;;5011335;28;20277;-82
2022/03/15 03:33:16;;;;;;;14.60;12.43;;;3.60;75.50;;;;;;5028436;28;20258;-82
2022/03/15 03:35:43;;;;;;;15.80;13.20;;;3.50;75.60;;;;;;5019554;28;20229;-82
2022/03/15 03:38:10;;;;;;;19.43;14.13;;;3.50;75.80;;;;;;5000438;28;20176;-83
2022/03/15 03:40:35;;;;;;;20.97;14.97;;;3.50;75.90;;;;;;5018467;28;20173;-83
2022/03/15 03:43:02;;;;;;;22.70;15.63;;;3.40;76.00;;;;;;5017242;28;20256;-83
2022/03/15 03:45:27;;;;;;;20.30;14.63;;;3.40;76.10;;;;;;5032001;28;20181;-91
2022/03/15 03:47:53;;;;;;;19.87;15.17;;;3.40;76.30;;;;;;5019986;28;20199;-92
2022/03/15 03:50:19;;;;;;;19.73;15.67;;;3.40;76.20;;;;;;5018087;28;20572;-91
2022/03/15 03:52:45;;;;;;;17.60;14.20;;;3.40;76.20;;;;;;5017838;28;20174;-88
2022/03/15 03:55:11;;;;;;;22.70;15.13;;;3.40;76.90;;;;;;5016690;28;20656;-86
2022/03/15 03:57:38;;;;;;;20.50;15.13;;;3.40;76.10;;;;;;5016759;28;20185;-89
2022/03/15 04:00:06;;;;;;;19.60;15.03;;;3.50;76.20;;;;;;5017094;28;20256;-85
2022/03/15 04:02:32;;;;;;;19.33;14.57;;;3.50;76.20;;;;;;5016788;28;20564;-91
2022/03/15 04:04:57;;;;;;;20.93;16.10;;;3.40;76.10;;;;;;4999439;28;20181;-83
2022/03/15 04:07:23;;;;;;;20.63;15.63;;;3.40;76.10;;;;;;5026584;28;20173;-89
2022/03/15 04:09:51;;;;;;;20.67;15.80;;;3.40;76.10;;;;;;5029907;28;20204;-83
2022/03/15 04:12:19;;;;;;;21.07;15.83;;;3.40;76.20;;;;;;5022243;28;20180;-89
2022/03/15 04:14:46;;;;;;;20.73;15.10;;;3.30;76.20;;;;;;5019296;28;20567;-85
2022/03/15 04:17:13;;;;;;;22.43;15.23;;;3.30;76.40;;;;;;5002265;28;20181;-87
2022/03/15 04:19:39;;;;;;;21.53;14.27;;;3.30;76.60;;;;;;5016347;28;20181;-89
2022/03/15 04:22:06;;;;;;;20.43;15.03;;;3.40;76.60;;;;;;5017249;28;20568;-85
2022/03/15 04:24:32;;;;;;;17.80;14.83;;;3.40;76.50;;;;;;5016529;28;20169;-87
2022/03/15 04:26:59;;;;;;;18.80;14.87;;;3.40;76.70;;;;;;4998895;28;20176;-88
2022/03/15 04:29:28;;;;;;;18.33;13.37;;;3.20;77.00;;;;;;5017050;28;20199;-91
2022/03/15 04:31:53;;;;;;;20.27;14.73;;;3.20;77.10;;;;;;5030583;28;20184;-90
2022/03/15 04:34:19;;;;;;;18.03;13.93;;;3.30;77.10;;;;;;5039472;28;20165;-90
2022/03/15 04:36:46;;;;;;;18.40;12.47;;;3.40;76.90;;;;;;5027556;28;20217;-93
2022/03/15 04:39:13;;;;;;;15.47;11.57;;;3.40;76.80;;;;;;5020271;28;20628;-90
2022/03/15 04:41:39;;;;;;;11.97;10.03;;;3.30;76.80;;;;;;5018885;28;20189;-85
2022/03/15 04:44:06;;;;;;;14.90;11.37;;;3.30;77.10;;;;;;5015948;28;20536;-88
2022/03/15 04:46:32;;;;;;;14.23;10.87;;;3.30;77.10;;;;;;5015930;28;20244;-86
2022/03/15 04:48:59;;;;;;;14.60;10.90;;;3.20;77.30;;;;;;5015795;28;20169;-88
2022/03/15 04:51:25;;;;;;;15.67;10.77;;;3.20;77.40;;;;;;5017853;28;20228;-82
2022/03/15 04:53:52;;;;;;;12.57;10.33;;;3.30;77.50;;;;;;5019736;28;20625;-82
2022/03/15 04:56:19;;;;;;;12.03;10.17;;;3.20;77.50;;;;;;5015415;28;20585;-83
2022/03/15 04:58:45;;;;;;;11.90;10.60;;;3.20;77.60;;;;;;4997793;28;20540;-83
2022/03/15 05:01:11;;;;;;;12.47;10.00;;;3.30;77.60;;;;;;4997350;28;20173;-82
2022/03/15 05:03:37;;;;;;;13.87;11.00;;;3.30;77.50;;;;;;4997423;28;20654;-90
2022/03/15 05:06:03;;;;;;;16.50;10.00;;;3.30;77.60;;;;;;5016226;28;20254;-90
2022/03/15 05:08:30;;;;;;;15.43;10.73;;;3.30;77.50;;;;;;5029406;28;20241;-89
2022/03/15 05:11:08;;;;;;;14.40;10.47;;;3.30;77.40;;;;;;5025170;28;20213;-90
2022/03/15 05:13:44;;;;;;;14.17;10.20;;;3.30;77.50;;;;;;5010114;28;20241;-91
2022/03/15 05:16:16;;;;;;;16.33;10.90;;;3.30;77.60;;;;;;5023749;28;20176;-88
2022/03/15 05:18:45;;;;;;;14.57;10.87;;;3.30;77.60;;;;;;5005138;28;20170;-90
2022/03/15 05:21:16;;;;;;;15.13;10.70;;;3.30;77.70;;;;;;5020044;28;20571;-89
2022/03/15 05:23:44;;;;;;;13.63;10.60;;;3.30;77.70;;;;;;5023765;28;20158;-89
2022/03/15 05:26:11;;;;;;;13.67;10.53;;;3.40;77.70;;;;;;5009510;28;20220;-85
2022/03/15 05:28:37;;;;;;;16.23;10.10;;;3.30;77.80;;;;;;5024089;28;20177;-90
2022/03/15 05:31:03;;;;;;;13.63;10.27;;;3.50;77.80;;;;;;5023497;28;20219;-92
2022/03/15 05:33:29;;;;;;;16.17;11.03;;;3.50;77.50;;;;;;5006197;28;20216;-87
2022/03/15 05:35:55;;;;;;;14.13;10.00;;;3.50;77.50;;;;;;5005401;28;20441;-82
2022/03/15 05:38:21;;;;;;;11.87;9.87;;;3.60;77.20;;;;;;5022364;28;20660;-91
2022/03/15 05:40:47;;;;;;;14.37;10.10;;;3.60;77.60;;;;;;5018495;28;20203;-91
2022/03/15 05:43:13;;;;;;;15.60;12.43;;;3.70;77.60;;;;;;5015986;28;20537;-91
2022/03/15 05:45:40;;;;;;;20.27;13.37;;;3.70;77.60;;;;;;5018275;28;20680;-91
2022/03/15 05:48:06;;;;;;;22.03;13.87;;;3.70;77.70;;;;;;5018802;28;20251;-92
2022/03/15 05:50:32;;;;;;;19.83;14.53;;;3.60;77.60;;;;;;5002164;28;20235;-90
2022/03/15 05:52:58;;;;;;;24.80;14.13;;;3.60;77.80;;;;;;5018814;28;20248;-88
2022/03/15 05:55:24;;;;;;;25.30;15.67;;;3.70;77.80;;;;;;5016755;28;20179;-87
2022/03/15 05:57:50;;;;;;;23.23;15.53;;;3.60;77.60;;;;;;5018995;28;20177;-86
2022/03/15 06:00:17;;;;;;;27.47;15.90;;;3.60;77.60;;;;;;4996743;28;20181;-83
2022/03/15 06:02:42;;;;;;;19.50;14.93;;;3.40;78.00;;;;;;4996901;28;20187;-81
2022/03/15 06:05:10;;;;;;;28.87;16.27;;;3.50;78.30;;;;;;5014357;28;20173;-82
2022/03/15 06:07:46;;;;;;;23.17;16.13;;;3.60;78.20;;;;;;5013729;28;20180;-83
2022/03/15 06:10:13;;;;;;;32.20;16.50;;;3.70;77.60;;;;;;5006213;28;20201;-84
2022/03/15 06:12:39;;;;;;;21.83;15.77;;;3.70;77.60;;;;;;5014138;28;20171;-90
2022/03/15 06:15:05;;;;;;;21.47;16.00;;;3.80;77.80;;;;;;5015174;28;20191;-91
2022/03/15 06:17:34;;;;;;;22.07;15.80;;;3.70;77.70;;;;;;5012101;28;20172;-87
2022/03/15 06:20:00;;;;;;;29.80;16.43;;;3.70;77.90;;;;;;5035893;28;20207;-83
2022/03/15 06:22:25;;;;;;;33.83;17.33;;;3.90;77.90;;;;;;5016134;28;20182;-88
2022/03/15 06:24:51;;;;;;;27.67;17.50;;;3.90;77.40;;;;;;4997485;28;20187;-85
2022/03/15 06:27:17;;;;;;;25.50;16.50;;;4.00;77.30;;;;;;4996614;28;20529;-82
2022/03/15 06:29:43;;;;;;;26.43;16.83;;;4.10;77.30;;;;;;4996747;28;20216;-90
2022/03/15 06:32:09;;;;;;;25.33;16.63;;;4.10;77.20;;;;;;5014549;28;20511;-85
2022/03/15 06:34:35;;;;;;;23.90;16.87;;;4.10;77.30;;;;;;5014218;28;20187;-90
2022/03/15 06:37:01;;;;;;;28.23;17.40;;;4.20;77.30;;;;;;5032713;28;20226;-90
2022/03/15 06:39:27;;;;;;;24.40;15.93;;;4.20;76.90;;;;;;5033879;28;20541;-90
2022/03/15 06:41:54;;;;;;;25.43;17.17;;;4.30;76.40;;;;;;5034297;28;20179;-92
2022/03/15 06:44:20;;;;;;;26.17;15.87;;;4.40;76.40;;;;;;5039035;28;20179;-87
2022/03/15 06:46:46;;;;;;;21.67;15.97;;;4.30;76.40;;;;;;5040106;28;20176;-84
2022/03/15 06:49:14;;;;;;;20.97;15.73;;;4.40;76.30;;;;;;5043074;28;20179;-85
2022/03/15 06:51:40;;;;;;;25.90;17.00;;;4.40;76.30;;;;;;5022654;28;20285;-85
2022/03/15 06:54:06;;;;;;;30.67;17.47;;;4.50;76.40;;;;;;5039535;28;20644;-87
2022/03/15 06:56:34;;;;;;;28.40;16.70;;;4.40;76.30;;;;;;5042762;28;20168;-83
2022/03/15 06:59:00;;;;;;;26.67;17.53;;;4.40;76.60;;;;;;5044857;28;20167;-83
2022/03/15 07:01:26;;;;;;;42.87;20.40;;;4.40;77.00;;;;;;5042986;28;20183;-84
2022/03/15 07:03:52;;;;;;;35.60;19.30;;;4.50;77.10;;;;;;5042552;28;20623;-89
2022/03/15 07:06:18;;;;;;;34.53;18.40;;;4.60;76.70;;;;;;5039787;28;20180;-91
2022/03/15 07:08:44;;;;;;;31.57;19.40;;;4.70;76.50;;;;;;5025965;28;20177;-83
2022/03/15 07:11:09;;;;;;;30.20;19.17;;;4.80;76.60;;;;;;5030777;28;20213;-89
2022/03/15 07:13:35;;;;;;;37.37;20.47;;;4.90;76.10;;;;;;5049406;28;20628;-87
2022/03/15 07:16:01;;;;;;;45.50;19.70;;;5.00;75.80;;;;;;5050828;28;20162;-88
2022/03/15 07:18:27;;;;;;;34.13;19.53;;;5.20;75.90;;;;;;5031027;28;20180;-89
2022/03/15 07:20:53;;;;;;;33.30;19.20;;;5.30;75.80;;;;;;5026353;28;20650;-92
2022/03/15 07:23:19;;;;;;;32.80;19.60;;;5.40;75.90;;;;;;5048689;28;20176;-87
2022/03/15 07:25:45;;;;;;;41.20;20.20;;;5.50;75.50;;;;;;5047719;28;20187;-90
2022/03/15 07:28:11;;;;;;;38.23;19.20;;;5.60;75.40;;;;;;5048745;28;20244;-88
2022/03/15 07:30:37;;;;;;;32.63;18.47;;;5.80;75.30;;;;;;5030247;28;20246;-90
2022/03/15 07:33:03;;;;;;;35.80;17.77;;;5.90;74.90;;;;;;5054880;28;20168;-86
2022/03/15 07:35:29;;;;;;;44.73;18.20;;;6.00;74.20;;;;;;5051287;28;20577;-88
2022/03/15 07:37:56;;;;;;;38.47;18.83;;;6.00;74.20;;;;;;5027306;28;20204;-87
2022/03/15 07:40:23;;;;;;;32.77;18.90;;;6.10;74.30;;;;;;5038592;28;20181;-88
2022/03/15 07:42:51;;;;;;;34.90;19.00;;;6.20;74.00;;;;;;5039195;28;20203;-85
2022/03/15 07:45:18;;;;;;;27.07;19.23;;;6.30;74.10;;;;;;5039731;28;20179;-84
2022/03/15 07:47:44;;;;;;;28.27;18.50;;;6.40;73.70;;;;;;5021389;28;20181;-82
2022/03/15 07:50:13;;;;;;;35.40;19.87;;;6.30;73.80;;;;;;5038216;28;20247;-85
2022/03/15 07:52:39;;;;;;;28.63;17.67;;;6.50;73.70;;;;;;5019571;28;20173;-82
2022/03/15 07:55:05;;;;;;;36.90;18.03;;;6.60;73.40;;;;;;5036510;28;20591;-87
2022/03/15 07:57:31;;;;;;;33.03;18.27;;;6.70;76.20;;;;;;5038710;28;20167;-85
2022/03/15 07:59:56;;;;;;;31.73;16.70;;;6.70;76.40;;;;;;5038971;28;20187;-88
2022/03/15 08:02:22;;;;;;;31.10;17.97;;;6.80;78.30;;;;;;5031110;28;20210;-90
2022/03/15 08:04:48;;;;;;;33.80;18.47;;;6.90;77.80;;;;;;5057896;28;20173;-89
2022/03/15 08:07:14;;;;;;;32.03;18.00;;;7.10;74.50;;;;;;5035223;28;20186;-87
2022/03/15 08:09:40;;;;;;;32.30;18.47;;;7.20;74.00;;;;;;5047552;28;20244;-83
2022/03/15 08:12:06;;;;;;;30.97;18.53;;;7.40;73.10;;;;;;5046647;28;20580;-86
2022/03/15 08:14:32;;;;;;;29.37;17.97;;;7.30;74.30;;;;;;5039118;28;20213;-88
2022/03/15 08:16:59;;;;;;;56.53;19.13;;;7.40;73.10;;;;;;5037723;28;20177;-85
2022/03/15 08:19:26;;;;;;;52.17;18.53;;;7.60;72.70;;;;;;5039651;28;20168;-83
2022/03/15 08:21:53;;;;;;;45.10;18.80;;;7.70;72.50;;;;;;5045673;28;20172;-89
2022/03/15 08:24:20;;;;;;;33.50;17.73;;;7.90;71.40;;;;;;5031888;28;20184;-84
2022/03/15 08:26:46;;;;;;;33.43;18.70;;;8.00;71.90;;;;;;5038916;28;20174;-89
2022/03/15 08:29:12;;;;;;;31.53;18.00;;;8.10;71.80;;;;;;5018112;28;20245;-85
2022/03/15 08:31:38;;;;;;;28.63;17.77;;;8.10;70.60;;;;;;5019174;28;20212;-86
2022/03/15 08:34:04;;;;;;;30.53;19.10;;;8.20;71.00;;;;;;5019043;28;20179;-87
2022/03/15 08:36:33;;;;;;;37.60;19.67;;;8.30;71.20;;;;;;5018978;28;20241;-89
2022/03/15 08:39:02;;;;;;;48.57;19.60;;;8.30;71.60;;;;;;5040598;28;20165;-86
2022/03/15 08:41:28;;;;;;;44.93;20.03;;;8.50;71.20;;;;;;5040641;28;20539;-82
2022/03/15 08:43:54;;;;;;;51.57;19.93;;;8.60;71.00;;;;;;5037750;28;20172;-85
2022/03/15 08:46:20;;;;;;;32.07;19.80;;;8.70;70.40;;;;;;5037888;28;20175;-86
2022/03/15 08:48:45;;;;;;;37.43;19.80;;;8.80;70.30;;;;;;5019586;28;20182;-88
2022/03/15 08:51:12;;;;;;;31.07;18.83;;;8.80;70.00;;;;;;5037796;28;20204;-85
2022/03/15 08:53:38;;;;;;;40.00;19.33;;;8.80;70.90;;;;;;5036806;28;20171;-85
2022/03/15 08:56:04;;;;;;;32.83;18.30;;;9.00;71.40;;;;;;5020525;28;20757;-85
2022/03/15 08:58:30;;;;;;;34.23;18.30;;;9.20;71.40;;;;;;5038366;28;20551;-83
2022/03/15 09:00:56;;;;;;;35.13;18.10;;;9.40;69.90;;;;;;5036569;28;20168;-84
2022/03/15 09:03:25;;;;;;;28.33;18.07;;;9.40;69.30;;;;;;5017721;28;20654;-85
2022/03/15 09:05:51;;;;;;;34.93;19.93;;;9.40;68.60;;;;;;5034248;28;20180;-85
2022/03/15 09:08:17;;;;;;;28.33;19.67;;;9.50;68.80;;;;;;5017813;28;20242;-85
2022/03/15 09:10:44;;;;;;;33.03;19.20;;;9.50;68.10;;;;;;5037401;28;20204;-88
2022/03/15 09:13:10;;;;;;;28.93;19.53;;;9.40;68.30;;;;;;5037873;28;20172;-92
2022/03/15 09:15:36;;;;;;;23.53;17.07;;;9.60;67.40;;;;;;5018967;28;20184;-90
2022/03/15 09:18:03;;;;;;;28.37;17.37;;;9.50;67.10;;;;;;5018804;28;20267;-88
2022/03/15 09:20:29;;;;;;;33.60;18.73;;;9.50;67.40;;;;;;5018526;28;20660;-89
2022/03/15 09:22:55;;;;;;;29.03;18.97;;;9.50;67.50;;;;;;5038766;28;20183;-87
2022/03/15 09:25:22;;;;;;;25.27;18.57;;;9.50;68.00;;;;;;5052562;28;20165;-88
2022/03/15 09:27:57;;;;;;;31.37;18.07;;;9.60;67.50;;;;;;5143440;27;20911;-86
2022/03/15 09:30:22;;;;;;;29.13;17.83;;;9.60;66.90;;;;;;5127270;28;20195;-85
2022/03/15 09:32:51;;;;;;;31.17;17.50;;;9.70;66.90;;;;;;5138285;28;20168;-89
2022/03/15 09:35:18;;;;;;;27.63;18.43;;;9.80;66.80;;;;;;5135365;28;20181;-90
2022/03/15 09:37:47;;;;;;;29.63;18.63;;;9.80;66.10;;;;;;5115622;28;20178;-86
2022/03/15 09:40:13;;;;;;;22.50;18.30;;;9.90;65.90;;;;;;5115711;28;20177;-84
2022/03/15 09:42:41;;;;;;;29.10;18.20;;;10.00;64.80;;;;;;5115098;28;20181;-89
2022/03/15 09:45:08;;;;;;;26.77;17.67;;;10.10;64.40;;;;;;5134497;28;20181;-85
2022/03/15 09:47:37;;;;;;;32.53;17.77;;;10.10;64.20;;;;;;5117320;28;20266;-83
2022/03/15 09:50:06;;;;;;;24.07;16.53;;;10.10;63.80;;;;;;5146011;28;20178;-88
2022/03/15 09:52:34;;;;;;;24.77;17.07;;;10.10;63.70;;;;;;5155457;28;20196;-85
2022/03/15 09:55:01;;;;;;;34.13;17.67;;;10.20;63.20;;;;;;5150983;28;20191;-85
2022/03/15 09:57:27;;;;;;;23.77;17.50;;;10.30;63.30;;;;;;5147417;28;20169;-84
2022/03/15 09:59:59;;;;;;;27.33;18.63;;;10.30;63.30;;;;;;5142283;28;20213;-83
2022/03/15 10:02:26;;;;;;;28.07;16.00;;;10.40;63.90;;;;;;5134701;28;20157;-83
2022/03/15 10:04:51;;;;;;;24.37;16.13;;;10.40;63.50;;;;;;5133526;28;20192;-84
2022/03/15 10:07:18;;;;;;;25.83;16.10;;;10.50;62.50;;;;;;5132022;28;20205;-85
2022/03/15 10:09:46;;;;;;;23.20;16.47;;;10.50;62.50;;;;;;5133107;28;20196;-84
2022/03/15 10:12:11;;;;;;;24.23;16.37;;;10.40;62.10;;;;;;5133241;28;20177;-85
2022/03/15 10:14:43;;;;;;;29.10;16.77;;;10.50;62.40;;;;;;5138999;28;20180;-83
2022/03/15 10:17:11;;;;;;;23.67;15.90;;;10.50;62.50;;;;;;5138658;28;20695;-83
2022/03/15 10:19:37;;;;;;;19.30;15.23;;;10.60;62.00;;;;;;5136737;28;20252;-84
2022/03/15 10:22:09;;;;;;;19.77;15.90;;;10.70;62.40;;;;;;5135165;28;20174;-83
2022/03/15 10:24:38;;;;;;;23.67;16.50;;;10.80;62.20;;;;;;5137450;28;20176;-83
2022/03/15 10:27:06;;;;;;;26.57;16.10;;;10.90;62.00;;;;;;5133126;28;20253;-83
2022/03/15 10:29:34;;;;;;;22.83;15.40;;;11.00;62.20;;;;;;5132728;28;20255;-88
2022/03/15 10:32:04;;;;;;;23.80;16.17;;;11.20;62.00;;;;;;5132275;28;20174;-86
2022/03/15 10:34:29;;;;;;;19.03;16.20;;;11.30;62.30;;;;;;5135751;28;20202;-82
2022/03/15 10:36:56;;;;;;;29.93;17.37;;;11.40;62.40;;;;;;5132485;28;20174;-87
2022/03/15 10:39:24;;;;;;;22.00;15.73;;;11.40;61.90;;;;;;5117536;28;20187;-89
2022/03/15 10:41:54;;;;;;;21.93;15.83;;;11.50;61.40;;;;;;5101773;28;20179;-87
2022/03/15 10:44:24;;;;;;;23.67;15.63;;;11.50;61.20;;;;;;5120127;28;20180;-88
2022/03/15 10:47:05;;;;;;;22.27;16.27;;;11.70;61.10;;;;;;5119784;28;20213;-86
2022/03/15 10:49:47;;;;;;;19.10;15.67;;;11.80;60.60;;;;;;5100420;28;20184;-90
2022/03/15 10:52:15;;;;;;;20.77;15.73;;;11.90;60.20;;;;;;5099229;28;20170;-90
2022/03/15 10:54:42;;;;;;;20.27;14.97;;;12.10;60.00;;;;;;5118227;28;20267;-90
2022/03/15 10:57:08;;;;;;;20.27;14.17;;;12.20;59.30;;;;;;5118009;28;20177;-88
2022/03/15 10:59:34;;;;;;;17.47;13.93;;;12.30;58.60;;;;;;5100182;28;20207;-90
2022/03/15 11:02:01;;;;;;;17.57;13.80;;;12.30;57.80;;;;;;5099818;28;20613;-90
2022/03/15 11:04:27;;;;;;;19.97;14.40;;;12.30;57.50;;;;;;5118216;28;20672;-91
2022/03/15 11:06:53;;;;;;;17.10;14.33;;;12.50;57.00;;;;;;5118743;28;20203;-89
2022/03/15 11:09:24;;;;;;;16.13;12.87;;;12.60;57.70;;;;;;5118007;28;20172;-89
2022/03/15 11:12:04;;;;;;;16.23;13.00;;;12.70;57.70;;;;;;5103519;28;20178;-90
2022/03/15 11:14:46;;;;;;;14.87;12.63;;;12.90;56.90;;;;;;5121088;28;20183;-84
2022/03/15 11:17:15;;;;;;;15.13;12.70;;;13.00;56.30;;;;;;5099318;28;20194;-84
2022/03/15 11:19:48;;;;;;;13.40;12.00;;;13.00;55.80;;;;;;5117632;28;20165;-82
2022/03/15 11:22:27;;;;;;;15.60;11.97;;;13.10;56.40;;;;;;5120317;28;20216;-83
2022/03/15 11:25:02;;;;;;;18.87;12.73;;;13.10;57.00;;;;;;5119829;28;20151;-87
2022/03/15 11:27:32;;;;;;;15.13;12.60;;;13.20;56.90;;;;;;5099029;28;20232;-82
2022/03/15 11:30:02;;;;;;;17.60;12.37;;;13.30;57.40;;;;;;5118270;28;20252;-82
2022/03/15 11:32:33;;;;;;;15.63;12.23;;;13.40;57.90;;;;;;5120246;28;20617;-82
2022/03/15 11:34:59;;;;;;;17.77;12.03;;;13.50;57.90;;;;;;5114122;28;20229;-86
2022/03/15 11:37:25;;;;;;;20.83;13.50;;;13.60;57.50;;;;;;5135094;28;20200;-82
2022/03/15 11:39:53;;;;;;;15.60;12.13;;;13.70;57.80;;;;;;5127496;28;20176;-83
2022/03/15 11:42:19;;;;;;;16.07;11.77;;;13.70;57.90;;;;;;5118138;28;20174;-85
2022/03/15 11:45:01;;;;;;;15.33;12.77;;;13.80;57.70;;;;;;5123450;28;20170;-84
2022/03/15 11:47:50;;;;;;;18.40;11.80;;;13.90;58.00;;;;;;5124467;28;20212;-83
2022/03/15 11:50:31;;;;;;;15.03;11.60;;;13.90;57.60;;;;;;5123766;28;20170;-87
2022/03/15 11:53:20;;;;;;;13.63;11.93;;;13.90;57.10;;;;;;5120312;28;20204;-84
2022/03/15 11:56:33;;;;;;;19.40;11.93;;;13.80;57.30;;;;;;5120347;28;20218;-88
2022/03/15 11:59:00;;;;;;;16.83;12.10;;;13.70;58.00;;;;;;5002750;28;20181;-84
2022/03/15 12:01:28;;;;;;;13.10;11.70;;;13.70;58.10;;;;;;5051791;28;20187;-84
2022/03/15 12:03:59;;;;;;;13.37;11.47;;;13.70;57.90;;;;;;5035236;28;20165;-83
2022/03/15 12:06:30;;;;;;;18.73;11.87;;;13.60;57.80;;;;;;5052248;28;20223;-86
2022/03/15 12:08:59;;;;;;;14.13;12.50;;;13.60;58.20;;;;;;5035300;28;20173;-87
2022/03/15 12:11:35;;;;;;;17.50;12.43;;;13.60;57.70;;;;;;5034924;28;20183;-85
2022/03/15 12:14:17;;;;;;;16.67;12.53;;;13.50;57.70;;;;;;5035208;28;20191;-84
2022/03/15 12:16:50;;;;;;;16.73;11.57;;;13.40;57.60;;;;;;5034803;28;20165;-89
2022/03/15 12:19:30;;;;;;;13.87;12.40;;;13.30;58.80;;;;;;5034574;28;20186;-86
2022/03/15 12:21:58;;;;;;;13.07;11.47;;;13.20;59.10;;;;;;5034779;28;20184;-86
2022/03/15 12:24:37;;;;;;;15.03;12.23;;;13.10;59.20;;;;;;5033954;28;20195;-86
2022/03/15 12:27:08;;;;;;;14.17;11.33;;;13.10;59.30;;;;;;5016557;28;20224;-86
2022/03/15 12:29:38;;;;;;;16.23;11.83;;;13.10;59.40;;;;;;5050845;28;20560;-86
2022/03/15 12:32:18;;;;;;;16.47;12.10;;;13.10;59.70;;;;;;5033529;28;20182;-88
2022/03/15 12:34:49;;;;;;;17.53;11.93;;;13.00;59.80;;;;;;5096234;28;20507;-88
2022/03/15 12:37:15;;;;;;;17.23;11.10;;;13.00;60.20;;;;;;5102005;28;20146;-84
2022/03/15 12:39:41;;;;;;;16.43;11.57;;;13.00;60.30;;;;;;5101684;28;20196;-88